sensor_id;sensor_type;location;lat;lon;timestamp;P1;durP1;ratioP1;P2;durP2;ratioP2
30723;SDS011;17473;52.286;20.930;2023-06-26T00:01:42;16.13;;;13.73;;
30723;SDS011;17473;52.286;20.930;2023-06-26T00:04:09;21.67;;;14.15;;
30723;SDS011;17473;52.286;20.930;2023-06-26T00:06:41;17.77;;;13.18;;
30723;SDS011;17473;52.286;20.930;2023-06-26T00:09:08;17.10;;;13.40;;
30723;SDS011;17473;52.286;20.930;2023-06-26T00:11:36;16.45;;;11.73;;
30723;SDS011;17473;52.286;20.930;2023-06-26T00:14:03;25.23;;;12.75;;
30723;SDS011;17473;52.286;20.930;2023-06-26T00:16:30;20.73;;;11.57;;
30723;SDS011;17473;52.286;20.930;2023-06-26T00:18:57;17.80;;;11.48;;
30723;SDS011;17473;52.286;20.930;2023-06-26T00:21:25;15.32;;;10.18;;
30723;SDS011;17473;52.286;20.930;2023-06-26T00:23:53;19.02;;;10.45;;
30723;SDS011;17473;52.286;20.930;2023-06-26T00:26:20;16.70;;;10.68;;
30723;SDS011;17473;52.286;20.930;2023-06-26T00:28:48;13.95;;;9.93;;
30723;SDS011;17473;52.286;20.930;2023-06-26T00:31:15;22.98;;;10.00;;
30723;SDS011;17473;52.286;20.930;2023-06-26T00:33:42;13.68;;;8.15;;
30723;SDS011;17473;52.286;20.930;2023-06-26T00:36:09;11.60;;;8.07;;
30723;SDS011;17473;52.286;20.930;2023-06-26T00:38:36;13.10;;;9.05;;
30723;SDS011;17473;52.286;20.930;2023-06-26T00:41:03;15.05;;;9.52;;
30723;SDS011;17473;52.286;20.930;2023-06-26T00:43:31;14.07;;;8.55;;
30723;SDS011;17473;52.286;20.930;2023-06-26T00:45:58;10.95;;;8.02;;
30723;SDS011;17473;52.286;20.930;2023-06-26T00:48:25;12.70;;;7.93;;
30723;SDS011;17473;52.286;20.930;2023-06-26T00:50:53;11.98;;;7.78;;
30723;SDS011;17473;52.286;20.930;2023-06-26T00:53:21;10.43;;;7.82;;
30723;SDS011;17473;52.286;20.930;2023-06-26T00:55:48;12.57;;;8.98;;
30723;SDS011;17473;52.286;20.930;2023-06-26T00:58:15;12.65;;;7.90;;
30723;SDS011;17473;52.286;20.930;2023-06-26T01:00:43;13.90;;;8.27;;
30723;SDS011;17473;52.286;20.930;2023-06-26T01:03:12;12.95;;;8.55;;
30723;SDS011;17473;52.286;20.930;2023-06-26T01:05:39;12.68;;;8.43;;
30723;SDS011;17473;52.286;20.930;2023-06-26T01:08:06;11.90;;;8.13;;
30723;SDS011;17473;52.286;20.930;2023-06-26T01:10:35;15.52;;;9.35;;
30723;SDS011;17473;52.286;20.930;2023-06-26T01:13:02;15.52;;;8.30;;
30723;SDS011;17473;52.286;20.930;2023-06-26T01:15:30;11.02;;;8.07;;
30723;SDS011;17473;52.286;20.930;2023-06-26T01:17:58;10.55;;;7.55;;
30723;SDS011;17473;52.286;20.930;2023-06-26T01:20:31;9.30;;;7.03;;
30723;SDS011;17473;52.286;20.930;2023-06-26T01:25:48;10.25;;;7.20;;
30723;SDS011;17473;52.286;20.930;2023-06-26T01:28:45;13.40;;;8.23;;
30723;SDS011;17473;52.286;20.930;2023-06-26T01:34:03;11.93;;;8.10;;
30723;SDS011;17473;52.286;20.930;2023-06-26T01:36:30;13.57;;;8.13;;
30723;SDS011;17473;52.286;20.930;2023-06-26T01:38:57;12.30;;;7.50;;
30723;SDS011;17473;52.286;20.930;2023-06-26T01:41:24;9.05;;;7.07;;
30723;SDS011;17473;52.286;20.930;2023-06-26T01:49:43;16.10;;;8.02;;
30723;SDS011;17473;52.286;20.930;2023-06-26T01:58:04;10.15;;;7.70;;
30723;SDS011;17473;52.286;20.930;2023-06-26T02:00:33;11.50;;;7.85;;
30723;SDS011;17473;52.286;20.930;2023-06-26T02:03:01;12.88;;;7.70;;
30723;SDS011;17473;52.286;20.930;2023-06-26T02:05:29;10.45;;;7.93;;
30723;SDS011;17473;52.286;20.930;2023-06-26T02:07:57;11.98;;;7.90;;
30723;SDS011;17473;52.286;20.930;2023-06-26T02:10:24;9.95;;;7.22;;
30723;SDS011;17473;52.286;20.930;2023-06-26T02:12:51;17.40;;;8.07;;
30723;SDS011;17473;52.286;20.930;2023-06-26T02:15:18;10.98;;;6.88;;
30723;SDS011;17473;52.286;20.930;2023-06-26T02:17:45;13.02;;;8.25;;
30723;SDS011;17473;52.286;20.930;2023-06-26T02:20:14;10.93;;;7.80;;
30723;SDS011;17473;52.286;20.930;2023-06-26T02:22:42;9.82;;;7.05;;
30723;SDS011;17473;52.286;20.930;2023-06-26T02:25:09;10.60;;;6.85;;
30723;SDS011;17473;52.286;20.930;2023-06-26T02:27:38;12.77;;;7.20;;
30723;SDS011;17473;52.286;20.930;2023-06-26T02:30:05;10.73;;;7.35;;
30723;SDS011;17473;52.286;20.930;2023-06-26T02:32:34;10.77;;;7.45;;
30723;SDS011;17473;52.286;20.930;2023-06-26T02:35:01;10.98;;;7.43;;
30723;SDS011;17473;52.286;20.930;2023-06-26T02:37:29;8.82;;;6.90;;
30723;SDS011;17473;52.286;20.930;2023-06-26T02:39:56;10.23;;;7.32;;
30723;SDS011;17473;52.286;20.930;2023-06-26T02:42:23;9.48;;;6.88;;
30723;SDS011;17473;52.286;20.930;2023-06-26T02:44:50;10.10;;;6.60;;
30723;SDS011;17473;52.286;20.930;2023-06-26T02:47:18;12.77;;;6.90;;
30723;SDS011;17473;52.286;20.930;2023-06-26T02:49:45;10.25;;;7.30;;
30723;SDS011;17473;52.286;20.930;2023-06-26T02:52:12;9.23;;;7.45;;
30723;SDS011;17473;52.286;20.930;2023-06-26T02:54:39;10.23;;;7.53;;
30723;SDS011;17473;52.286;20.930;2023-06-26T02:57:06;9.38;;;7.05;;
30723;SDS011;17473;52.286;20.930;2023-06-26T02:59:34;11.48;;;7.45;;
30723;SDS011;17473;52.286;20.930;2023-06-26T03:02:01;8.90;;;6.68;;
30723;SDS011;17473;52.286;20.930;2023-06-26T03:04:28;12.30;;;8.32;;
30723;SDS011;17473;52.286;20.930;2023-06-26T03:06:55;15.65;;;8.32;;
30723;SDS011;17473;52.286;20.930;2023-06-26T03:09:22;11.98;;;7.70;;
30723;SDS011;17473;52.286;20.930;2023-06-26T03:11:49;10.82;;;7.20;;
30723;SDS011;17473;52.286;20.930;2023-06-26T03:14:17;13.10;;;7.47;;
30723;SDS011;17473;52.286;20.930;2023-06-26T03:16:44;11.30;;;7.95;;
30723;SDS011;17473;52.286;20.930;2023-06-26T03:19:11;14.90;;;8.45;;
30723;SDS011;17473;52.286;20.930;2023-06-26T03:21:38;13.90;;;8.18;;
30723;SDS011;17473;52.286;20.930;2023-06-26T03:24:05;16.45;;;7.63;;
30723;SDS011;17473;52.286;20.930;2023-06-26T03:26:32;13.88;;;7.65;;
30723;SDS011;17473;52.286;20.930;2023-06-26T03:28:59;13.00;;;8.00;;
30723;SDS011;17473;52.286;20.930;2023-06-26T03:31:26;14.95;;;7.40;;
30723;SDS011;17473;52.286;20.930;2023-06-26T03:33:54;10.20;;;7.60;;
30723;SDS011;17473;52.286;20.930;2023-06-26T03:36:21;11.68;;;7.82;;
30723;SDS011;17473;52.286;20.930;2023-06-26T03:38:48;15.55;;;8.00;;
30723;SDS011;17473;52.286;20.930;2023-06-26T03:41:15;17.08;;;8.18;;
30723;SDS011;17473;52.286;20.930;2023-06-26T03:43:42;11.95;;;8.05;;
30723;SDS011;17473;52.286;20.930;2023-06-26T03:46:09;12.82;;;7.15;;
30723;SDS011;17473;52.286;20.930;2023-06-26T03:48:36;11.95;;;7.88;;
30723;SDS011;17473;52.286;20.930;2023-06-26T03:51:04;12.20;;;7.28;;
30723;SDS011;17473;52.286;20.930;2023-06-26T03:53:33;10.43;;;7.43;;
30723;SDS011;17473;52.286;20.930;2023-06-26T03:56:00;10.48;;;7.30;;
30723;SDS011;17473;52.286;20.930;2023-06-26T03:58:28;9.95;;;7.28;;
30723;SDS011;17473;52.286;20.930;2023-06-26T04:00:55;11.65;;;7.72;;
30723;SDS011;17473;52.286;20.930;2023-06-26T04:03:23;10.80;;;7.65;;
30723;SDS011;17473;52.286;20.930;2023-06-26T04:05:50;14.95;;;7.30;;
30723;SDS011;17473;52.286;20.930;2023-06-26T04:08:17;12.05;;;7.53;;
30723;SDS011;17473;52.286;20.930;2023-06-26T04:10:46;9.98;;;6.80;;
30723;SDS011;17473;52.286;20.930;2023-06-26T04:13:14;11.05;;;7.22;;
30723;SDS011;17473;52.286;20.930;2023-06-26T04:15:41;10.98;;;6.88;;
30723;SDS011;17473;52.286;20.930;2023-06-26T04:18:08;12.68;;;7.15;;
30723;SDS011;17473;52.286;20.930;2023-06-26T04:20:38;12.40;;;7.47;;
30723;SDS011;17473;52.286;20.930;2023-06-26T04:23:08;8.98;;;6.80;;
30723;SDS011;17473;52.286;20.930;2023-06-26T04:25:35;9.32;;;7.20;;
30723;SDS011;17473;52.286;20.930;2023-06-26T04:28:04;11.45;;;6.50;;
30723;SDS011;17473;52.286;20.930;2023-06-26T04:30:31;9.55;;;6.57;;
30723;SDS011;17473;52.286;20.930;2023-06-26T04:32:58;9.68;;;6.63;;
30723;SDS011;17473;52.286;20.930;2023-06-26T04:35:28;8.57;;;6.20;;
30723;SDS011;17473;52.286;20.930;2023-06-26T04:37:55;14.68;;;7.30;;
30723;SDS011;17473;52.286;20.930;2023-06-26T04:40:22;7.93;;;6.70;;
30723;SDS011;17473;52.286;20.930;2023-06-26T04:42:49;10.35;;;6.85;;
30723;SDS011;17473;52.286;20.930;2023-06-26T04:45:16;10.68;;;7.88;;
30723;SDS011;17473;52.286;20.930;2023-06-26T04:47:43;19.90;;;9.15;;
30723;SDS011;17473;52.286;20.930;2023-06-26T04:50:10;21.35;;;8.50;;
30723;SDS011;17473;52.286;20.930;2023-06-26T04:52:37;24.50;;;8.95;;
30723;SDS011;17473;52.286;20.930;2023-06-26T04:55:04;19.23;;;7.88;;
30723;SDS011;17473;52.286;20.930;2023-06-26T04:57:32;29.70;;;8.57;;
30723;SDS011;17473;52.286;20.930;2023-06-26T04:59:59;23.52;;;8.93;;
30723;SDS011;17473;52.286;20.930;2023-06-26T05:02:26;20.80;;;8.45;;
30723;SDS011;17473;52.286;20.930;2023-06-26T05:04:53;22.00;;;9.40;;
30723;SDS011;17473;52.286;20.930;2023-06-26T05:07:20;37.38;;;8.63;;
30723;SDS011;17473;52.286;20.930;2023-06-26T05:09:48;23.42;;;8.82;;
30723;SDS011;17473;52.286;20.930;2023-06-26T05:12:15;23.58;;;7.82;;
30723;SDS011;17473;52.286;20.930;2023-06-26T05:14:42;20.48;;;7.63;;
30723;SDS011;17473;52.286;20.930;2023-06-26T05:17:09;28.55;;;7.80;;
30723;SDS011;17473;52.286;20.930;2023-06-26T05:19:36;14.10;;;6.45;;
30723;SDS011;17473;52.286;20.930;2023-06-26T05:22:03;10.80;;;6.18;;
30723;SDS011;17473;52.286;20.930;2023-06-26T05:24:37;15.10;;;7.05;;
30723;SDS011;17473;52.286;20.930;2023-06-26T05:27:07;9.07;;;5.80;;
30723;SDS011;17473;52.286;20.930;2023-06-26T05:29:34;11.10;;;6.75;;
30723;SDS011;17473;52.286;20.930;2023-06-26T05:32:04;12.73;;;5.97;;
30723;SDS011;17473;52.286;20.930;2023-06-26T05:34:32;8.93;;;6.50;;
30723;SDS011;17473;52.286;20.930;2023-06-26T05:37:01;10.23;;;6.40;;
30723;SDS011;17473;52.286;20.930;2023-06-26T05:39:29;10.80;;;6.72;;
30723;SDS011;17473;52.286;20.930;2023-06-26T05:41:56;7.43;;;6.00;;
30723;SDS011;17473;52.286;20.930;2023-06-26T05:44:24;12.30;;;5.85;;
30723;SDS011;17473;52.286;20.930;2023-06-26T05:46:51;8.68;;;5.70;;
30723;SDS011;17473;52.286;20.930;2023-06-26T05:49:18;9.70;;;6.07;;
30723;SDS011;17473;52.286;20.930;2023-06-26T05:51:45;10.60;;;5.93;;
30723;SDS011;17473;52.286;20.930;2023-06-26T05:54:13;13.85;;;6.13;;
30723;SDS011;17473;52.286;20.930;2023-06-26T05:56:40;7.47;;;5.90;;
30723;SDS011;17473;52.286;20.930;2023-06-26T05:59:09;9.50;;;5.40;;
30723;SDS011;17473;52.286;20.930;2023-06-26T06:01:38;10.55;;;5.85;;
30723;SDS011;17473;52.286;20.930;2023-06-26T06:04:06;6.40;;;4.95;;
30723;SDS011;17473;52.286;20.930;2023-06-26T06:06:33;7.43;;;5.53;;
30723;SDS011;17473;52.286;20.930;2023-06-26T06:09:00;8.32;;;5.25;;
30723;SDS011;17473;52.286;20.930;2023-06-26T06:11:28;6.50;;;4.85;;
30723;SDS011;17473;52.286;20.930;2023-06-26T06:13:55;9.07;;;5.65;;
30723;SDS011;17473;52.286;20.930;2023-06-26T06:16:22;5.70;;;5.10;;
30723;SDS011;17473;52.286;20.930;2023-06-26T06:18:49;12.52;;;4.80;;
30723;SDS011;17473;52.286;20.930;2023-06-26T06:21:16;7.15;;;4.40;;
30723;SDS011;17473;52.286;20.930;2023-06-26T06:23:43;8.50;;;4.05;;
30723;SDS011;17473;52.286;20.930;2023-06-26T06:26:10;7.35;;;4.53;;
30723;SDS011;17473;52.286;20.930;2023-06-26T06:28:38;6.72;;;4.57;;
30723;SDS011;17473;52.286;20.930;2023-06-26T06:31:05;6.50;;;4.30;;
30723;SDS011;17473;52.286;20.930;2023-06-26T06:33:33;10.65;;;4.70;;
30723;SDS011;17473;52.286;20.930;2023-06-26T06:36:00;6.07;;;3.78;;
30723;SDS011;17473;52.286;20.930;2023-06-26T06:38:27;5.20;;;4.00;;
30723;SDS011;17473;52.286;20.930;2023-06-26T06:40:54;5.85;;;4.28;;
30723;SDS011;17473;52.286;20.930;2023-06-26T06:43:22;5.82;;;5.03;;
30723;SDS011;17473;52.286;20.930;2023-06-26T06:45:49;7.95;;;4.70;;
30723;SDS011;17473;52.286;20.930;2023-06-26T06:48:16;11.80;;;4.45;;
30723;SDS011;17473;52.286;20.930;2023-06-26T06:50:43;9.50;;;4.10;;
30723;SDS011;17473;52.286;20.930;2023-06-26T06:53:10;6.50;;;4.22;;
30723;SDS011;17473;52.286;20.930;2023-06-26T06:55:37;5.72;;;3.55;;
30723;SDS011;17473;52.286;20.930;2023-06-26T06:58:04;7.22;;;4.20;;
30723;SDS011;17473;52.286;20.930;2023-06-26T07:00:31;13.40;;;4.18;;
30723;SDS011;17473;52.286;20.930;2023-06-26T07:02:58;13.20;;;4.72;;
30723;SDS011;17473;52.286;20.930;2023-06-26T07:05:26;9.18;;;3.75;;
30723;SDS011;17473;52.286;20.930;2023-06-26T07:07:54;10.07;;;4.20;;
30723;SDS011;17473;52.286;20.930;2023-06-26T07:10:21;13.77;;;4.28;;
30723;SDS011;17473;52.286;20.930;2023-06-26T07:12:48;5.53;;;3.85;;
30723;SDS011;17473;52.286;20.930;2023-06-26T07:15:15;8.32;;;3.80;;
30723;SDS011;17473;52.286;20.930;2023-06-26T07:17:42;9.05;;;4.18;;
30723;SDS011;17473;52.286;20.930;2023-06-26T07:20:10;8.65;;;4.50;;
30723;SDS011;17473;52.286;20.930;2023-06-26T07:22:41;4.00;;;3.60;;
30723;SDS011;17473;52.286;20.930;2023-06-26T07:25:11;5.85;;;4.03;;
30723;SDS011;17473;52.286;20.930;2023-06-26T07:27:38;4.93;;;3.85;;
30723;SDS011;17473;52.286;20.930;2023-06-26T07:30:07;6.60;;;4.40;;
30723;SDS011;17473;52.286;20.930;2023-06-26T07:32:35;7.30;;;4.15;;
30723;SDS011;17473;52.286;20.930;2023-06-26T07:35:09;6.28;;;4.05;;
30723;SDS011;17473;52.286;20.930;2023-06-26T07:37:36;6.95;;;4.38;;
30723;SDS011;17473;52.286;20.930;2023-06-26T07:40:03;4.57;;;3.55;;
30723;SDS011;17473;52.286;20.930;2023-06-26T07:42:31;4.38;;;3.47;;
30723;SDS011;17473;52.286;20.930;2023-06-26T07:44:58;3.75;;;3.17;;
30723;SDS011;17473;52.286;20.930;2023-06-26T07:47:25;4.10;;;3.70;;
30723;SDS011;17473;52.286;20.930;2023-06-26T07:49:53;5.53;;;3.90;;
30723;SDS011;17473;52.286;20.930;2023-06-26T07:52:20;6.80;;;4.45;;
30723;SDS011;17473;52.286;20.930;2023-06-26T07:54:47;7.97;;;4.22;;
30723;SDS011;17473;52.286;20.930;2023-06-26T07:57:14;7.22;;;3.95;;
30723;SDS011;17473;52.286;20.930;2023-06-26T07:59:41;4.65;;;3.58;;
30723;SDS011;17473;52.286;20.930;2023-06-26T08:02:08;6.50;;;3.90;;
30723;SDS011;17473;52.286;20.930;2023-06-26T08:04:36;5.00;;;3.78;;
30723;SDS011;17473;52.286;20.930;2023-06-26T08:07:03;3.92;;;3.63;;
30723;SDS011;17473;52.286;20.930;2023-06-26T08:09:31;5.63;;;4.38;;
30723;SDS011;17473;52.286;20.930;2023-06-26T08:11:59;6.03;;;4.00;;
30723;SDS011;17473;52.286;20.930;2023-06-26T08:14:26;5.43;;;3.90;;
30723;SDS011;17473;52.286;20.930;2023-06-26T08:16:53;6.80;;;4.47;;
30723;SDS011;17473;52.286;20.930;2023-06-26T08:19:21;5.43;;;4.60;;
30723;SDS011;17473;52.286;20.930;2023-06-26T08:21:48;7.22;;;4.40;;
30723;SDS011;17473;52.286;20.930;2023-06-26T08:24:16;5.47;;;4.43;;
30723;SDS011;17473;52.286;20.930;2023-06-26T08:26:45;5.32;;;4.20;;
30723;SDS011;17473;52.286;20.930;2023-06-26T08:29:14;9.57;;;7.97;;
30723;SDS011;17473;52.286;20.930;2023-06-26T08:31:41;20.52;;;10.13;;
30723;SDS011;17473;52.286;20.930;2023-06-26T08:34:10;5.05;;;4.55;;
30723;SDS011;17473;52.286;20.930;2023-06-26T08:36:37;11.45;;;6.20;;
30723;SDS011;17473;52.286;20.930;2023-06-26T08:39:04;6.68;;;3.30;;
30723;SDS011;17473;52.286;20.930;2023-06-26T08:41:32;8.02;;;3.50;;
30723;SDS011;17473;52.286;20.930;2023-06-26T08:43:59;5.22;;;3.25;;
30723;SDS011;17473;52.286;20.930;2023-06-26T08:46:27;5.10;;;3.38;;
30723;SDS011;17473;52.286;20.930;2023-06-26T08:48:56;6.03;;;4.90;;
30723;SDS011;17473;52.286;20.930;2023-06-26T08:51:30;4.97;;;3.85;;
30723;SDS011;17473;52.286;20.930;2023-06-26T08:54:02;7.38;;;3.90;;
30723;SDS011;17473;52.286;20.930;2023-06-26T08:56:36;4.20;;;3.40;;
30723;SDS011;17473;52.286;20.930;2023-06-26T08:59:09;4.40;;;3.95;;
30723;SDS011;17473;52.286;20.930;2023-06-26T09:01:40;8.32;;;4.50;;
30723;SDS011;17473;52.286;20.930;2023-06-26T09:04:08;6.05;;;4.32;;
30723;SDS011;17473;52.286;20.930;2023-06-26T09:06:35;8.80;;;4.40;;
30723;SDS011;17473;52.286;20.930;2023-06-26T09:09:03;8.32;;;4.32;;
30723;SDS011;17473;52.286;20.930;2023-06-26T09:11:30;9.80;;;3.95;;
30723;SDS011;17473;52.286;20.930;2023-06-26T09:13:57;6.68;;;3.45;;
30723;SDS011;17473;52.286;20.930;2023-06-26T09:16:25;5.35;;;3.72;;
30723;SDS011;17473;52.286;20.930;2023-06-26T09:18:53;9.57;;;3.90;;
30723;SDS011;17473;52.286;20.930;2023-06-26T09:21:22;8.45;;;4.32;;
30723;SDS011;17473;52.286;20.930;2023-06-26T09:23:50;8.35;;;4.10;;
30723;SDS011;17473;52.286;20.930;2023-06-26T09:26:19;10.55;;;4.05;;
30723;SDS011;17473;52.286;20.930;2023-06-26T09:28:48;14.75;;;4.60;;
30723;SDS011;17473;52.286;20.930;2023-06-26T09:31:16;12.27;;;4.20;;
30723;SDS011;17473;52.286;20.930;2023-06-26T09:34:04;9.02;;;3.85;;
30723;SDS011;17473;52.286;20.930;2023-06-26T09:36:32;11.40;;;3.75;;
30723;SDS011;17473;52.286;20.930;2023-06-26T09:39:05;3.80;;;3.40;;
30723;SDS011;17473;52.286;20.930;2023-06-26T09:41:40;6.10;;;3.80;;
30723;SDS011;17473;52.286;20.930;2023-06-26T09:44:12;9.73;;;4.40;;
30723;SDS011;17473;52.286;20.930;2023-06-26T09:46:40;7.57;;;4.30;;
30723;SDS011;17473;52.286;20.930;2023-06-26T09:49:11;6.43;;;3.72;;
30723;SDS011;17473;52.286;20.930;2023-06-26T09:51:39;8.98;;;4.13;;
30723;SDS011;17473;52.286;20.930;2023-06-26T09:54:09;10.13;;;3.72;;
30723;SDS011;17473;52.286;20.930;2023-06-26T09:56:36;14.73;;;3.70;;
30723;SDS011;17473;52.286;20.930;2023-06-26T09:59:04;7.07;;;3.63;;
30723;SDS011;17473;52.286;20.930;2023-06-26T10:01:33;8.45;;;3.85;;
30723;SDS011;17473;52.286;20.930;2023-06-26T10:04:06;6.55;;;2.90;;
30723;SDS011;17473;52.286;20.930;2023-06-26T10:06:35;5.20;;;3.20;;
30723;SDS011;17473;52.286;20.930;2023-06-26T10:09:07;12.57;;;5.20;;
30723;SDS011;17473;52.286;20.930;2023-06-26T10:11:53;5.05;;;3.58;;
30723;SDS011;17473;52.286;20.930;2023-06-26T10:14:36;3.67;;;2.85;;
30723;SDS011;17473;52.286;20.930;2023-06-26T10:17:07;4.90;;;3.05;;
30723;SDS011;17473;52.286;20.930;2023-06-26T10:19:38;6.70;;;3.30;;
30723;SDS011;17473;52.286;20.930;2023-06-26T10:22:09;10.75;;;2.95;;
30723;SDS011;17473;52.286;20.930;2023-06-26T10:24:41;3.67;;;3.05;;
30723;SDS011;17473;52.286;20.930;2023-06-26T10:27:19;6.32;;;3.00;;
30723;SDS011;17473;52.286;20.930;2023-06-26T10:29:50;7.78;;;3.22;;
30723;SDS011;17473;52.286;20.930;2023-06-26T10:32:28;5.25;;;3.08;;
30723;SDS011;17473;52.286;20.930;2023-06-26T10:34:56;4.70;;;2.90;;
30723;SDS011;17473;52.286;20.930;2023-06-26T10:38:00;4.05;;;3.28;;
30723;SDS011;17473;52.286;20.930;2023-06-26T10:40:26;11.35;;;3.38;;
30723;SDS011;17473;52.286;20.930;2023-06-26T10:43:07;5.10;;;3.42;;
30723;SDS011;17473;52.286;20.930;2023-06-26T10:45:35;4.18;;;3.10;;
30723;SDS011;17473;52.286;20.930;2023-06-26T10:48:08;4.60;;;3.55;;
30723;SDS011;17473;52.286;20.930;2023-06-26T10:50:35;6.53;;;3.92;;
30723;SDS011;17473;52.286;20.930;2023-06-26T10:53:11;9.38;;;3.25;;
30723;SDS011;17473;52.286;20.930;2023-06-26T10:55:56;7.85;;;3.50;;
30723;SDS011;17473;52.286;20.930;2023-06-26T11:06:29;8.45;;;3.50;;
30723;SDS011;17473;52.286;20.930;2023-06-26T11:09:06;3.95;;;3.17;;
30723;SDS011;17473;52.286;20.930;2023-06-26T11:14:21;4.00;;;3.60;;
30723;SDS011;17473;52.286;20.930;2023-06-26T11:16:50;5.95;;;4.00;;
30723;SDS011;17473;52.286;20.930;2023-06-26T11:19:18;9.60;;;3.67;;
30723;SDS011;17473;52.286;20.930;2023-06-26T11:21:46;7.53;;;4.18;;
30723;SDS011;17473;52.286;20.930;2023-06-26T11:24:14;4.63;;;3.25;;
30723;SDS011;17473;52.286;20.930;2023-06-26T11:26:42;8.55;;;3.60;;
30723;SDS011;17473;52.286;20.930;2023-06-26T11:29:11;5.50;;;3.33;;
30723;SDS011;17473;52.286;20.930;2023-06-26T11:31:39;3.25;;;2.95;;
30723;SDS011;17473;52.286;20.930;2023-06-26T11:34:08;3.95;;;3.08;;
30723;SDS011;17473;52.286;20.930;2023-06-26T11:36:38;5.00;;;3.35;;
30723;SDS011;17473;52.286;20.930;2023-06-26T11:39:09;6.32;;;3.58;;
30723;SDS011;17473;52.286;20.930;2023-06-26T11:41:39;6.38;;;2.85;;
30723;SDS011;17473;52.286;20.930;2023-06-26T11:44:08;6.25;;;3.40;;
30723;SDS011;17473;52.286;20.930;2023-06-26T11:46:37;6.18;;;4.22;;
30723;SDS011;17473;52.286;20.930;2023-06-26T11:49:05;4.35;;;2.92;;
30723;SDS011;17473;52.286;20.930;2023-06-26T11:51:34;5.65;;;2.83;;
30723;SDS011;17473;52.286;20.930;2023-06-26T11:54:07;8.68;;;4.05;;
30723;SDS011;17473;52.286;20.930;2023-06-26T11:56:34;4.32;;;3.67;;
30723;SDS011;17473;52.286;20.930;2023-06-26T11:59:02;6.13;;;3.20;;
30723;SDS011;17473;52.286;20.930;2023-06-26T12:01:39;6.88;;;3.47;;
30723;SDS011;17473;52.286;20.930;2023-06-26T12:04:13;6.35;;;3.50;;
30723;SDS011;17473;52.286;20.930;2023-06-26T12:06:51;10.38;;;3.65;;
30723;SDS011;17473;52.286;20.930;2023-06-26T12:09:23;4.30;;;3.70;;
30723;SDS011;17473;52.286;20.930;2023-06-26T12:11:52;9.70;;;4.93;;
30723;SDS011;17473;52.286;20.930;2023-06-26T12:14:22;8.98;;;5.20;;
30723;SDS011;17473;52.286;20.930;2023-06-26T12:16:52;4.25;;;3.05;;
30723;SDS011;17473;52.286;20.930;2023-06-26T12:19:23;6.63;;;3.40;;
30723;SDS011;17473;52.286;20.930;2023-06-26T12:21:53;6.13;;;2.95;;
30723;SDS011;17473;52.286;20.930;2023-06-26T12:24:23;5.13;;;3.03;;
30723;SDS011;17473;52.286;20.930;2023-06-26T12:26:54;5.28;;;4.03;;
30723;SDS011;17473;52.286;20.930;2023-06-26T12:29:33;5.28;;;3.75;;
30723;SDS011;17473;52.286;20.930;2023-06-26T12:32:01;6.72;;;3.80;;
30723;SDS011;17473;52.286;20.930;2023-06-26T12:34:33;6.88;;;3.28;;
30723;SDS011;17473;52.286;20.930;2023-06-26T12:37:03;7.63;;;4.18;;
30723;SDS011;17473;52.286;20.930;2023-06-26T12:39:53;5.53;;;4.25;;
30723;SDS011;17473;52.286;20.930;2023-06-26T12:42:25;3.85;;;3.50;;
30723;SDS011;17473;52.286;20.930;2023-06-26T12:44:54;5.03;;;3.00;;
30723;SDS011;17473;52.286;20.930;2023-06-26T12:47:24;6.35;;;3.58;;
30723;SDS011;17473;52.286;20.930;2023-06-26T12:49:54;5.15;;;3.80;;
30723;SDS011;17473;52.286;20.930;2023-06-26T12:52:21;8.10;;;3.78;;
30723;SDS011;17473;52.286;20.930;2023-06-26T12:54:52;4.93;;;3.95;;
30723;SDS011;17473;52.286;20.930;2023-06-26T12:57:22;6.25;;;3.42;;
30723;SDS011;17473;52.286;20.930;2023-06-26T12:59:49;6.88;;;3.55;;
30723;SDS011;17473;52.286;20.930;2023-06-26T13:02:17;5.38;;;3.92;;
30723;SDS011;17473;52.286;20.930;2023-06-26T13:04:45;4.18;;;3.22;;
30723;SDS011;17473;52.286;20.930;2023-06-26T13:07:12;5.40;;;3.22;;
30723;SDS011;17473;52.286;20.930;2023-06-26T13:09:40;4.28;;;3.67;;
30723;SDS011;17473;52.286;20.930;2023-06-26T13:12:07;5.72;;;3.20;;
30723;SDS011;17473;52.286;20.930;2023-06-26T13:14:35;7.85;;;3.15;;
30723;SDS011;17473;52.286;20.930;2023-06-26T13:17:02;5.57;;;3.47;;
30723;SDS011;17473;52.286;20.930;2023-06-26T13:19:33;6.35;;;3.63;;
30723;SDS011;17473;52.286;20.930;2023-06-26T13:22:00;5.15;;;3.72;;
30723;SDS011;17473;52.286;20.930;2023-06-26T13:24:27;4.45;;;3.35;;
30723;SDS011;17473;52.286;20.930;2023-06-26T13:26:54;6.35;;;3.03;;
30723;SDS011;17473;52.286;20.930;2023-06-26T13:29:21;4.47;;;3.20;;
30723;SDS011;17473;52.286;20.930;2023-06-26T13:31:48;6.40;;;3.80;;
30723;SDS011;17473;52.286;20.930;2023-06-26T13:34:22;5.70;;;3.50;;
30723;SDS011;17473;52.286;20.930;2023-06-26T13:36:50;6.07;;;3.70;;
30723;SDS011;17473;52.286;20.930;2023-06-26T13:39:18;4.03;;;3.05;;
30723;SDS011;17473;52.286;20.930;2023-06-26T13:41:45;5.35;;;3.35;;
30723;SDS011;17473;52.286;20.930;2023-06-26T13:44:12;5.72;;;3.22;;
30723;SDS011;17473;52.286;20.930;2023-06-26T13:46:53;3.80;;;3.25;;
30723;SDS011;17473;52.286;20.930;2023-06-26T13:49:20;4.28;;;3.38;;
30723;SDS011;17473;52.286;20.930;2023-06-26T13:51:47;7.32;;;3.55;;
30723;SDS011;17473;52.286;20.930;2023-06-26T13:54:14;7.32;;;3.88;;
30723;SDS011;17473;52.286;20.930;2023-06-26T13:56:41;5.60;;;3.30;;
30723;SDS011;17473;52.286;20.930;2023-06-26T13:59:08;7.57;;;4.07;;
30723;SDS011;17473;52.286;20.930;2023-06-26T14:01:36;5.32;;;3.05;;
30723;SDS011;17473;52.286;20.930;2023-06-26T14:04:03;4.90;;;3.78;;
30723;SDS011;17473;52.286;20.930;2023-06-26T14:06:30;5.45;;;3.20;;
30723;SDS011;17473;52.286;20.930;2023-06-26T14:08:58;4.40;;;3.33;;
30723;SDS011;17473;52.286;20.930;2023-06-26T14:11:26;6.35;;;3.85;;
30723;SDS011;17473;52.286;20.930;2023-06-26T14:13:53;4.93;;;3.28;;
30723;SDS011;17473;52.286;20.930;2023-06-26T14:16:20;5.38;;;3.13;;
30723;SDS011;17473;52.286;20.930;2023-06-26T14:18:47;4.93;;;2.92;;
30723;SDS011;17473;52.286;20.930;2023-06-26T14:21:14;6.22;;;3.33;;
30723;SDS011;17473;52.286;20.930;2023-06-26T14:23:42;5.72;;;3.40;;
30723;SDS011;17473;52.286;20.930;2023-06-26T14:26:09;8.18;;;3.50;;
30723;SDS011;17473;52.286;20.930;2023-06-26T14:28:37;10.02;;;3.50;;
30723;SDS011;17473;52.286;20.930;2023-06-26T14:31:05;5.88;;;3.45;;
30723;SDS011;17473;52.286;20.930;2023-06-26T14:33:32;3.50;;;3.17;;
30723;SDS011;17473;52.286;20.930;2023-06-26T14:35:59;9.30;;;4.15;;
30723;SDS011;17473;52.286;20.930;2023-06-26T14:38:26;11.32;;;3.78;;
30723;SDS011;17473;52.286;20.930;2023-06-26T14:40:53;7.40;;;3.65;;
30723;SDS011;17473;52.286;20.930;2023-06-26T14:43:21;5.30;;;3.50;;
30723;SDS011;17473;52.286;20.930;2023-06-26T14:45:49;4.72;;;3.17;;
30723;SDS011;17473;52.286;20.930;2023-06-26T14:48:17;6.28;;;3.20;;
30723;SDS011;17473;52.286;20.930;2023-06-26T14:50:45;6.80;;;3.53;;
30723;SDS011;17473;52.286;20.930;2023-06-26T14:53:12;10.27;;;3.83;;
30723;SDS011;17473;52.286;20.930;2023-06-26T14:55:39;10.70;;;3.85;;
30723;SDS011;17473;52.286;20.930;2023-06-26T14:58:06;6.70;;;3.60;;
30723;SDS011;17473;52.286;20.930;2023-06-26T15:00:34;11.75;;;4.22;;
30723;SDS011;17473;52.286;20.930;2023-06-26T15:03:01;12.23;;;4.60;;
30723;SDS011;17473;52.286;20.930;2023-06-26T15:05:29;10.05;;;3.78;;